Isola Bianca — ICLD — position and weather

sailwx.info

Track history (hours):
 
Tides and Currents Weather Stations Pressure Air Temp Water Temp Dewpoint Dewpoint Depression Visibility Wind Speed Wind Dir Waves Ship Positions

Isola Bianca

Last reported at 2016-Sep-24 03:33 UTC. Time now 2016-Sep-26 08:49 UTC.
Position N 26°07' W 079°29'.

Length 183 m; draft 7.5 m.

Type: Ship. MMSI: 247245200.

Date/timePositionNaut miles runAvg speedWind from/ knotsBaromVisibWave heightAir tempDewpointWater temp
2016-Sep-24 03:33N 26°07' W 079°29'1010.3
2016-Sep-24 02:33N 26°17' W 079°27'1310.1
2016-Sep-24 01:14N 26°30' W 079°28'7 9.8
2016-Sep-24 00:32N 26°37' W 079°30'  
2016-Sep-19 16:29N 40°29' W 073°53'13 6.5
2016-Sep-19 14:31N 40°39' W 074°04'0 0.0
2016-Sep-19 13:31N 40°39' W 074°04'0 0.0
2016-Sep-19 12:31N 40°39' W 074°04'0 0.1
2016-Sep-19 11:31N 40°38' W 074°04'0 0.1
2016-Sep-19 09:31N 40°38' W 074°04'0 0.0
2016-Sep-19 07:31N 40°38' W 074°04'0 0.0
2016-Sep-19 06:31N 40°38' W 074°04'0 0.0
2016-Sep-19 03:33N 40°38' W 074°04'7 7.2
2016-Sep-19 02:33N 40°31' W 074°03'17 0.7
2016-Sep-18 02:26N 40°29' W 073°40'0 0.0
2016-Sep-18 01:33N 40°29' W 073°40'0 0.0
2016-Sep-17 22:17N 40°29' W 073°40'0 0.0
2016-Sep-17 21:20N 40°29' W 073°40'0 0.0
2016-Sep-17 20:32N 40°29' W 073°40'0 0.0
2016-Sep-17 19:08N 40°29' W 073°40'25 4.5
2016-Sep-17 13:32N 40°36' W 074°12'0 0.0
2016-Sep-17 12:26N 40°36' W 074°12'0 0.0
2016-Sep-17 10:32N 40°36' W 074°12'0 0.0
2016-Sep-17 09:32N 40°36' W 074°12'0 0.0
2016-Sep-17 08:32N 40°36' W 074°12'0 0.0
2016-Sep-17 07:32N 40°36' W 074°12'0 0.0
2016-Sep-17 05:32N 40°36' W 074°12'0 0.0
2016-Sep-17 04:32N 40°36' W 074°12'0 0.0
2016-Sep-17 00:32N 40°36' W 074°12'  
Track history (hours):
 
Tides and Currents Weather Stations Pressure Air Temp Water Temp Dewpoint Dewpoint Depression Visibility Wind Speed Wind Dir Waves Ship Positions

Isola Bianca

Last reported at 2016-Sep-24 03:33 UTC. Time now 2016-Sep-26 08:49 UTC.
Position N 26°07' W 079°29'.

Length 183 m; draft 7.5 m.

Type: Ship. MMSI: 247245200.

Date/timePositionNaut miles runAvg speedWind from/ knotsBaromVisibWave heightAir tempDewpointWater temp
2016-Sep-24 03:33N 26°07' W 079°29'1010.3
2016-Sep-24 02:33N 26°17' W 079°27'1310.1
2016-Sep-24 01:14N 26°30' W 079°28'7 9.8
2016-Sep-24 00:32N 26°37' W 079°30'  
2016-Sep-19 16:29N 40°29' W 073°53'13 6.5
2016-Sep-19 14:31N 40°39' W 074°04'0 0.0
2016-Sep-19 13:31N 40°39' W 074°04'0 0.0
2016-Sep-19 12:31N 40°39' W 074°04'0 0.1
2016-Sep-19 11:31N 40°38' W 074°04'0 0.1
2016-Sep-19 09:31N 40°38' W 074°04'0 0.0
2016-Sep-19 07:31N 40°38' W 074°04'0 0.0
2016-Sep-19 06:31N 40°38' W 074°04'0 0.0
2016-Sep-19 03:33N 40°38' W 074°04'7 7.2
2016-Sep-19 02:33N 40°31' W 074°03'17 0.7
2016-Sep-18 02:26N 40°29' W 073°40'0 0.0
2016-Sep-18 01:33N 40°29' W 073°40'0 0.0
2016-Sep-17 22:17N 40°29' W 073°40'0 0.0
2016-Sep-17 21:20N 40°29' W 073°40'0 0.0
2016-Sep-17 20:32N 40°29' W 073°40'0 0.0
2016-Sep-17 19:08N 40°29' W 073°40'25 4.5
2016-Sep-17 13:32N 40°36' W 074°12'0 0.0
2016-Sep-17 12:26N 40°36' W 074°12'0 0.0
2016-Sep-17 10:32N 40°36' W 074°12'0 0.0
2016-Sep-17 09:32N 40°36' W 074°12'0 0.0
2016-Sep-17 08:32N 40°36' W 074°12'0 0.0
2016-Sep-17 07:32N 40°36' W 074°12'0 0.0
2016-Sep-17 05:32N 40°36' W 074°12'0 0.0
2016-Sep-17 04:32N 40°36' W 074°12'0 0.0
2016-Sep-17 00:32N 40°36' W 074°12'  

Dump ship's entire track history